createdAt,value
2018-08-06T00:02:18.763Z,67.60
2018-08-06T00:04:46.337Z,68.20
2018-08-06T00:07:14.254Z,68.70
2018-08-06T00:09:42.883Z,69.60
2018-08-06T00:12:10.611Z,70.50
2018-08-06T00:14:38.526Z,70.80
2018-08-06T00:17:06.398Z,71.00
2018-08-06T00:19:34.057Z,71.10
2018-08-06T00:22:01.713Z,71.50
2018-08-06T00:24:29.248Z,71.60
2018-08-06T00:26:56.930Z,72.20
2018-08-06T00:29:24.575Z,72.90
2018-08-06T00:31:52.328Z,73.90
2018-08-06T00:34:19.967Z,74.10
2018-08-06T00:36:47.583Z,74.20
2018-08-06T00:39:15.197Z,74.70
2018-08-06T00:41:42.924Z,75.10
2018-08-06T00:44:10.577Z,74.60
2018-08-06T00:46:38.793Z,74.20
2018-08-06T00:49:06.493Z,74.50
2018-08-06T00:51:34.125Z,74.70
2018-08-06T00:54:01.734Z,76.00
2018-08-06T00:56:30.250Z,75.80
2018-08-06T00:58:57.928Z,75.80
2018-08-06T01:01:25.563Z,76.30
2018-08-06T01:03:53.317Z,77.10
2018-08-06T01:06:20.878Z,76.60
2018-08-06T01:08:48.537Z,76.60
2018-08-06T01:11:16.189Z,76.60
2018-08-06T01:13:43.846Z,76.60
2018-08-06T01:16:11.479Z,76.60
2018-08-06T01:18:39.134Z,77.00
2018-08-06T01:21:06.718Z,77.20
2018-08-06T01:23:34.348Z,78.10
2018-08-06T01:26:02.785Z,77.80
2018-08-06T01:28:30.381Z,77.80
2018-08-06T01:30:57.988Z,78.40
2018-08-06T01:33:25.600Z,78.70
2018-08-06T01:35:53.730Z,78.90
2018-08-06T01:38:21.303Z,79.50
2018-08-06T01:40:48.914Z,79.90
2018-08-06T01:43:17.590Z,80.60
2018-08-06T01:45:45.328Z,80.60
2018-08-06T01:48:12.945Z,80.80
2018-08-06T01:50:40.544Z,80.40
2018-08-06T01:53:08.166Z,80.40
2018-08-06T01:55:35.806Z,80.20
2018-08-06T01:58:03.539Z,81.80
2018-08-06T02:00:31.133Z,81.50
2018-08-06T02:03:16.416Z,81.30
2018-08-06T02:05:44.085Z,81.30
2018-08-06T02:08:11.643Z,82.10
2018-08-06T02:10:39.251Z,82.00
2018-08-06T02:13:06.926Z,82.30
2018-08-06T02:15:34.573Z,82.00
2018-08-06T02:18:02.160Z,82.30
2018-08-06T02:20:29.744Z,83.10
2018-08-06T02:22:59.441Z,82.50
2018-08-06T02:25:27.205Z,83.20
2018-08-06T02:27:54.858Z,82.80
2018-08-06T02:30:22.522Z,82.20
2018-08-06T02:32:50.239Z,82.70
2018-08-06T02:35:17.919Z,83.80
2018-08-06T02:37:45.547Z,84.50
2018-08-06T02:40:23.421Z,84.30
2018-08-06T02:42:51.039Z,84.40
2018-08-06T02:45:19.065Z,85.00
2018-08-06T02:47:46.690Z,84.20
2018-08-06T02:50:14.361Z,84.40
2018-08-06T02:52:42.887Z,84.90
2018-08-06T02:55:12.127Z,85.20
2018-08-06T02:57:39.772Z,85.80
2018-08-06T03:00:08.456Z,85.30
2018-08-06T03:02:36.048Z,85.80
2018-08-06T03:05:03.942Z,85.70
2018-08-06T03:07:31.609Z,86.20
2018-08-06T03:09:59.343Z,87.20
2018-08-06T03:12:27.088Z,87.40
2018-08-06T03:14:54.731Z,86.80
2018-08-06T03:17:22.442Z,86.30
2018-08-06T03:19:53.091Z,86.00
2018-08-06T03:22:20.768Z,85.70
2018-08-06T03:24:48.415Z,85.60
2018-08-06T03:27:16.084Z,85.80
2018-08-06T03:29:44.036Z,86.30
2018-08-06T03:32:11.590Z,88.30
2018-08-06T03:34:39.204Z,87.80
2018-08-06T03:37:06.789Z,87.70
2018-08-06T03:39:34.450Z,86.60
2018-08-06T03:42:02.025Z,86.80
2018-08-06T03:44:29.598Z,87.10
2018-08-06T03:46:57.175Z,86.90
2018-08-06T03:49:24.853Z,87.90
2018-08-06T03:51:52.433Z,88.20
2018-08-06T03:54:20.101Z,88.20
2018-08-06T03:56:47.719Z,88.40
2018-08-06T03:59:15.303Z,89.20
2018-08-06T04:01:43.003Z,88.80
2018-08-06T04:04:10.726Z,88.20
2018-08-06T04:06:38.331Z,89.10
2018-08-06T04:09:11.674Z,88.90
2018-08-06T04:14:26.522Z,89.20
2018-08-06T04:16:54.465Z,89.60
2018-08-06T04:19:22.102Z,89.90
2018-08-06T04:21:49.706Z,90.10
2018-08-06T04:24:17.450Z,90.10
2018-08-06T04:26:45.382Z,90.10
2018-08-06T04:29:12.950Z,90.10
2018-08-06T04:31:40.530Z,90.10
2018-08-06T04:34:08.078Z,90.20
2018-08-06T04:36:35.726Z,90.20
2018-08-06T04:39:04.335Z,90.20
2018-08-06T04:41:31.992Z,90.00
2018-08-06T04:43:59.560Z,90.00
2018-08-06T04:46:29.170Z,90.00
2018-08-06T04:48:56.803Z,90.10
2018-08-06T04:51:24.500Z,90.30
2018-08-06T04:53:52.121Z,90.30
2018-08-06T04:56:19.939Z,90.50
2018-08-06T04:58:59.515Z,90.70
2018-08-06T05:01:27.136Z,90.80
2018-08-06T05:03:57.159Z,91.00
2018-08-06T05:06:24.875Z,90.80
2018-08-06T05:08:52.471Z,90.40
2018-08-06T05:11:21.170Z,90.30
2018-08-06T05:13:48.805Z,90.10
2018-08-06T05:16:16.409Z,89.50
2018-08-06T05:18:47.767Z,89.50
2018-08-06T05:21:19.410Z,89.00
2018-08-06T05:23:54.141Z,88.90
2018-08-06T05:26:22.160Z,88.70
2018-08-06T05:28:51.028Z,88.10
2018-08-06T05:31:18.875Z,87.60
2018-08-06T05:33:46.483Z,87.20
2018-08-06T05:36:14.210Z,86.70
2018-08-06T05:41:44.263Z,86.10
2018-08-06T06:13:46.656Z,81.50
2018-08-06T06:16:25.637Z,80.60
2018-08-06T06:18:53.395Z,81.00
2018-08-06T06:21:21.081Z,81.00
2018-08-06T06:23:49.596Z,79.20
2018-08-06T06:26:17.312Z,78.30
2018-08-06T06:28:44.881Z,77.70
2018-08-06T06:31:12.654Z,76.20
2018-08-06T06:33:40.449Z,75.60
2018-08-06T06:36:08.184Z,74.50
2018-08-06T06:38:36.126Z,74.00
2018-08-06T06:41:04.036Z,73.00
2018-08-06T06:43:40.810Z,71.70
2018-08-06T06:46:11.222Z,70.90
2018-08-06T06:48:39.783Z,70.00
2018-08-06T06:51:12.691Z,69.70
2018-08-06T06:53:40.581Z,70.60
2018-08-06T06:56:21.120Z,70.30
2018-08-06T06:58:49.013Z,69.50
2018-08-06T07:01:16.768Z,68.10
2018-08-06T07:03:44.872Z,67.90
2018-08-06T07:06:13.950Z,66.30
2018-08-06T07:08:41.812Z,64.50
2018-08-06T07:14:02.272Z,64.00
2018-08-06T07:16:31.520Z,64.10
2018-08-06T07:18:59.527Z,62.80
2018-08-06T07:21:27.864Z,63.60
2018-08-06T07:23:55.918Z,63.20
2018-08-06T07:26:31.161Z,62.30
2018-08-06T07:28:58.955Z,61.40
2018-08-06T07:31:29.332Z,60.90
2018-08-06T07:33:57.061Z,61.00
2018-08-06T07:36:24.651Z,60.50
2018-08-06T07:38:52.394Z,59.50
2018-08-06T07:41:20.038Z,59.00
2018-08-06T07:43:56.484Z,58.70
2018-08-06T07:46:26.764Z,57.90
2018-08-06T07:48:54.398Z,57.10
2018-08-06T07:51:25.469Z,55.90
2018-08-06T07:53:53.137Z,55.90
2018-08-06T07:56:20.776Z,55.20
2018-08-06T07:58:48.381Z,53.90
2018-08-06T08:01:15.978Z,53.30
2018-08-06T08:03:47.166Z,53.80
2018-08-06T08:06:14.743Z,52.90
2018-08-06T08:08:42.368Z,52.10
2018-08-06T08:11:10.021Z,51.90
2018-08-06T08:13:37.579Z,51.40
2018-08-06T08:16:05.480Z,51.10
2018-08-06T08:18:33.103Z,50.00
2018-08-06T08:21:02.749Z,48.40
2018-08-06T08:23:30.530Z,47.00
2018-08-06T08:25:58.111Z,46.60
2018-08-06T08:28:26.734Z,46.30
2018-08-06T08:30:54.373Z,45.40
2018-08-06T08:33:21.977Z,44.40
2018-08-06T08:35:49.625Z,43.60
2018-08-06T08:38:29.969Z,43.00
2018-08-06T08:40:57.696Z,43.30
2018-08-06T08:43:32.113Z,43.00
2018-08-06T08:45:59.774Z,42.20
2018-08-06T08:48:27.331Z,41.70
2018-08-06T08:50:55.179Z,41.00
2018-08-06T08:53:22.766Z,40.70
2018-08-06T08:55:50.412Z,40.90
2018-08-06T08:58:18.058Z,40.00
2018-08-06T09:00:45.678Z,39.50
2018-08-06T09:03:13.312Z,39.50
2018-08-06T09:05:45.148Z,38.90
2018-08-06T09:08:12.674Z,37.80
2018-08-06T09:13:38.607Z,38.40
2018-08-06T09:16:06.209Z,38.70
2018-08-06T09:18:35.820Z,37.40
2018-08-06T09:21:03.421Z,37.90
2018-08-06T09:23:40.979Z,37.70
2018-08-06T09:26:08.496Z,37.10
2018-08-06T09:28:36.011Z,37.70
2018-08-06T09:31:03.602Z,36.10
2018-08-06T09:33:31.088Z,36.40
2018-08-06T09:35:58.668Z,36.70
2018-08-06T09:38:26.203Z,36.80
2018-08-06T09:40:53.773Z,36.70
2018-08-06T09:43:21.276Z,36.90
2018-08-06T09:45:52.603Z,36.20
2018-08-06T09:48:20.172Z,35.70
2018-08-06T09:50:47.714Z,34.90
2018-08-06T09:53:15.239Z,34.20
2018-08-06T09:55:50.949Z,35.80
2018-08-06T09:58:18.527Z,34.20
2018-08-06T10:00:51.598Z,34.50
2018-08-06T10:03:19.153Z,34.60
2018-08-06T10:05:46.835Z,34.40
2018-08-06T10:08:15.407Z,34.80
2018-08-06T10:10:43.048Z,34.30
2018-08-06T10:13:10.619Z,33.70
2018-08-06T10:15:38.261Z,33.80
2018-08-06T10:18:05.967Z,32.60
2018-08-06T10:20:38.183Z,32.40
2018-08-06T10:23:05.759Z,32.90
2018-08-06T10:25:33.323Z,33.30
2018-08-06T10:28:00.893Z,33.10
2018-08-06T10:30:28.532Z,33.50
2018-08-06T10:33:01.918Z,33.70
2018-08-06T10:35:29.506Z,33.30
2018-08-06T10:37:57.013Z,33.10
2018-08-06T10:40:24.811Z,33.00
2018-08-06T10:43:04.606Z,32.70
2018-08-06T10:45:32.181Z,32.60
2018-08-06T10:47:59.753Z,32.80
2018-08-06T10:50:27.471Z,32.40
2018-08-06T10:52:54.979Z,32.30
2018-08-06T10:55:22.510Z,32.00
2018-08-06T10:57:50.082Z,31.20
2018-08-06T11:00:18.881Z,31.40
2018-08-06T11:02:46.626Z,31.00
2018-08-06T11:05:18.029Z,31.60
2018-08-06T11:07:45.665Z,30.80
2018-08-06T11:13:01.361Z,31.80
2018-08-06T11:15:28.993Z,31.80
2018-08-06T11:17:56.674Z,31.80
2018-08-06T11:20:24.505Z,31.70
2018-08-06T11:23:02.641Z,31.60
2018-08-06T11:25:30.240Z,31.70
2018-08-06T11:28:02.988Z,31.70
2018-08-06T11:30:30.621Z,32.20
2018-08-06T11:32:58.204Z,32.40
2018-08-06T11:35:25.813Z,32.30
2018-08-06T11:37:53.346Z,32.10
2018-08-06T11:40:20.998Z,31.80
2018-08-06T11:42:48.926Z,32.00
2018-08-06T11:45:17.747Z,31.70
2018-08-06T11:47:45.374Z,31.40
2018-08-06T11:50:12.995Z,30.90
2018-08-06T11:52:40.618Z,31.80
2018-08-06T11:55:08.563Z,31.30
2018-08-06T11:57:36.328Z,32.50
2018-08-06T12:00:06.123Z,31.80
2018-08-06T12:02:33.744Z,31.70
2018-08-06T12:05:09.063Z,32.10
2018-08-06T12:13:23.962Z,31.50
2018-08-06T12:15:51.619Z,31.40
2018-08-06T12:18:19.251Z,30.50
2018-08-06T12:20:49.391Z,30.50
2018-08-06T12:23:28.653Z,29.80
2018-08-06T12:25:57.745Z,29.90
2018-08-06T12:28:25.554Z,29.90
2018-08-06T12:30:53.415Z,30.50
2018-08-06T12:33:21.544Z,30.10
2018-08-06T12:35:53.787Z,29.80
2018-08-06T12:38:21.337Z,29.90
2018-08-06T12:40:50.500Z,29.10
2018-08-06T12:43:28.660Z,29.10
2018-08-06T12:46:11.317Z,29.60
2018-08-06T12:48:40.718Z,29.30
2018-08-06T12:51:09.598Z,29.40
2018-08-06T12:53:43.275Z,29.80
2018-08-06T12:56:13.633Z,28.60
2018-08-06T12:58:51.599Z,29.30
2018-08-06T13:01:20.174Z,29.00
2018-08-06T13:03:52.513Z,29.30
2018-08-06T13:06:21.401Z,28.70
2018-08-06T13:08:51.302Z,28.60
2018-08-06T13:11:19.013Z,28.00
2018-08-06T13:13:46.615Z,28.30
2018-08-06T13:16:16.557Z,27.70
2018-08-06T13:18:44.487Z,27.40
2018-08-06T13:21:12.072Z,27.30
2018-08-06T13:23:40.652Z,28.00
2018-08-06T13:26:09.636Z,27.60
2018-08-06T13:28:37.474Z,27.00
2018-08-06T13:31:05.084Z,26.50
2018-08-06T13:33:32.624Z,26.70
2018-08-06T13:36:00.188Z,26.90
2018-08-06T13:38:27.943Z,26.60
2018-08-06T13:40:56.604Z,27.30
2018-08-06T13:43:24.565Z,27.00
2018-08-06T13:45:52.379Z,27.10
2018-08-06T13:48:37.515Z,27.00
2018-08-06T13:51:09.139Z,26.80
2018-08-06T13:53:36.718Z,26.70
2018-08-06T13:56:04.319Z,27.10
2018-08-06T13:58:35.011Z,27.00
2018-08-06T14:01:09.838Z,27.00
2018-08-06T14:03:37.548Z,26.40
2018-08-06T14:06:05.207Z,26.50
2018-08-06T14:08:36.267Z,26.00
2018-08-06T14:11:13.375Z,25.80
2018-08-06T14:13:41.168Z,25.60
2018-08-06T14:16:20.659Z,26.60
2018-08-06T14:18:48.346Z,27.00
2018-08-06T14:21:15.965Z,26.80
2018-08-06T14:23:45.034Z,26.70
2018-08-06T14:26:12.767Z,26.10
2018-08-06T14:28:40.577Z,25.70
2018-08-06T14:31:09.617Z,26.40
2018-08-06T14:33:37.469Z,26.00
2018-08-06T14:36:06.986Z,26.90
2018-08-06T14:38:35.048Z,27.70
2018-08-06T14:41:02.930Z,27.50
2018-08-06T14:43:30.576Z,28.50
2018-08-06T14:45:58.177Z,29.00
2018-08-06T14:48:25.820Z,28.10
2018-08-06T14:50:53.630Z,28.80
2018-08-06T14:53:21.234Z,28.20
2018-08-06T14:55:48.884Z,28.30
2018-08-06T14:58:17.974Z,28.60
2018-08-06T15:06:11.940Z,28.80
2018-08-06T15:09:07.099Z,28.20
2018-08-06T15:11:37.367Z,27.90
2018-08-06T15:17:01.869Z,28.20
2018-08-06T15:19:36.094Z,28.50
2018-08-06T15:24:49.239Z,28.60
2018-08-06T15:27:16.992Z,28.90
2018-08-06T15:29:48.647Z,28.90
2018-08-06T15:35:19.133Z,29.90
2018-08-06T15:38:22.719Z,30.00
2018-08-06T15:46:22.502Z,30.90
2018-08-06T15:48:50.367Z,31.40
2018-08-06T15:51:19.949Z,31.10
2018-08-06T15:53:47.746Z,31.10
2018-08-06T15:56:20.675Z,31.00
2018-08-06T15:58:49.165Z,31.40
2018-08-06T16:01:17.274Z,31.60
2018-08-06T16:03:45.282Z,32.20
2018-08-06T16:06:14.605Z,32.30
2018-08-06T16:08:52.230Z,32.50
2018-08-06T16:11:21.752Z,31.90
2018-08-06T16:13:56.620Z,31.80
2018-08-06T16:19:05.235Z,31.50
2018-08-06T19:49:10.765Z,47.50
2018-08-06T19:51:38.580Z,47.40
2018-08-06T19:54:06.404Z,47.60
2018-08-06T20:23:00.786Z,46.50
2018-08-06T20:25:28.194Z,46.60
2018-08-06T20:28:09.358Z,46.90
2018-08-06T20:30:37.463Z,47.70
2018-08-06T20:33:14.677Z,47.40
2018-08-06T20:35:48.429Z,47.40
2018-08-06T20:43:52.285Z,47.30
2018-08-06T20:49:15.539Z,48.60
2018-08-06T20:52:01.557Z,48.30
2018-08-06T20:54:29.956Z,48.60
2018-08-06T20:56:57.899Z,49.40
2018-08-06T20:59:29.268Z,50.00
2018-08-06T21:05:33.895Z,49.20
2018-08-06T21:08:02.458Z,49.70
2018-08-06T21:14:00.580Z,50.00
2018-08-06T21:16:28.975Z,50.10
2018-08-06T21:18:57.305Z,50.30
2018-08-06T21:21:25.789Z,50.60
2018-08-06T21:23:54.541Z,50.90
2018-08-06T21:26:22.330Z,51.20
2018-08-06T21:28:50.890Z,51.30
2018-08-06T21:31:18.531Z,51.20
2018-08-06T21:33:46.902Z,51.20
2018-08-06T21:36:15.297Z,50.80
2018-08-06T21:38:43.081Z,51.80
2018-08-06T21:41:10.818Z,51.00
2018-08-06T21:43:38.511Z,51.80
2018-08-06T21:46:06.168Z,52.00
2018-08-06T21:48:35.849Z,52.30
2018-08-06T21:51:04.605Z,52.50
2018-08-06T21:53:32.238Z,52.70
2018-08-06T21:55:59.890Z,53.10
2018-08-06T21:58:27.546Z,53.90
2018-08-06T22:00:55.187Z,54.30
2018-08-06T22:03:22.827Z,54.60
2018-08-06T22:05:50.498Z,54.70
2018-08-06T22:08:18.153Z,55.60
2018-08-06T22:10:45.798Z,56.00
2018-08-06T22:13:13.427Z,56.30
2018-08-06T22:15:41.100Z,57.20
2018-08-06T22:18:09.355Z,57.90
2018-08-06T22:20:36.959Z,58.10
2018-08-06T22:23:04.688Z,58.10
2018-08-06T22:25:32.350Z,58.10
2018-08-06T22:28:00.024Z,58.10
2018-08-06T22:30:27.699Z,57.70
2018-08-06T22:32:55.315Z,58.00
2018-08-06T22:35:22.955Z,58.60
2018-08-06T22:37:55.334Z,59.00
2018-08-06T22:40:22.961Z,59.00
2018-08-06T22:42:50.546Z,58.80
2018-08-06T22:45:18.275Z,59.00
2018-08-06T22:50:33.583Z,59.90
2018-08-06T22:53:03.342Z,61.00
2018-08-06T22:55:35.385Z,61.00
2018-08-06T22:58:03.318Z,60.10
2018-08-06T23:00:30.927Z,60.00
2018-08-06T23:02:58.477Z,59.50
2018-08-06T23:05:31.273Z,59.70
2018-08-06T23:07:59.941Z,59.90
2018-08-06T23:10:27.676Z,59.40
2018-08-06T23:12:58.604Z,57.80
2018-08-06T23:15:26.258Z,57.50
2018-08-06T23:17:53.906Z,57.70
2018-08-06T23:20:21.507Z,57.60
2018-08-06T23:22:49.098Z,57.40
2018-08-06T23:25:17.150Z,57.50
2018-08-06T23:27:45.391Z,57.40
2018-08-06T23:30:15.014Z,57.10
2018-08-06T23:32:43.544Z,57.00
2018-08-06T23:35:12.339Z,57.10
2018-08-06T23:37:41.038Z,57.20
2018-08-06T23:40:14.719Z,58.30
2018-08-06T23:42:43.184Z,57.90
2018-08-06T23:45:12.093Z,58.20
2018-08-06T23:47:40.228Z,58.80
2018-08-06T23:53:04.656Z,59.20
2018-08-06T23:55:32.167Z,58.90
2018-08-06T23:57:59.778Z,59.20
